createdAt,value
2023-07-24T00:00:50.916Z,18.20
2023-07-24T00:03:19.715Z,18.20
2023-07-24T00:05:49.934Z,18.20
2023-07-24T00:08:18.647Z,18.20
2023-07-24T00:10:47.369Z,18.20
2023-07-24T00:13:16.174Z,18.20
2023-07-24T00:15:48.085Z,18.20
2023-07-24T00:18:16.965Z,18.20
2023-07-24T00:20:45.906Z,18.20
2023-07-24T00:23:16.167Z,18.10
2023-07-24T00:25:45.075Z,18.10
2023-07-24T00:28:13.977Z,18.00
2023-07-24T00:30:44.205Z,17.90
2023-07-24T00:33:27.800Z,17.80
2023-07-24T00:35:58.894Z,17.80
2023-07-24T00:38:29.421Z,17.80
2023-07-24T00:40:58.382Z,17.70
2023-07-24T00:43:46.082Z,17.70
2023-07-24T00:46:16.630Z,17.80
2023-07-24T00:48:45.591Z,17.80
2023-07-24T00:51:15.592Z,17.80
2023-07-24T00:54:05.388Z,17.90
2023-07-24T00:56:34.844Z,17.90
2023-07-24T00:59:03.698Z,17.90
2023-07-24T01:01:32.653Z,17.80
2023-07-24T01:04:01.729Z,17.70
2023-07-24T01:06:31.919Z,17.70
2023-07-24T01:09:07.132Z,17.60
2023-07-24T01:11:43.661Z,17.60
2023-07-24T01:14:21.316Z,17.60
2023-07-24T01:16:51.287Z,17.60
2023-07-24T01:19:34.762Z,17.60
2023-07-24T01:22:14.727Z,17.60
2023-07-24T01:25:00.418Z,17.50
2023-07-24T01:27:30.533Z,17.50
2023-07-24T01:29:59.210Z,17.60
2023-07-24T01:32:28.143Z,17.60
2023-07-24T01:34:57.210Z,17.60
2023-07-24T01:37:31.377Z,17.70
2023-07-24T01:40:03.244Z,17.60
2023-07-24T01:42:33.489Z,17.60
2023-07-24T01:45:02.408Z,17.60
2023-07-24T01:47:31.464Z,17.60
2023-07-24T01:50:02.247Z,17.50
2023-07-24T01:52:31.058Z,17.50
2023-07-24T01:54:59.948Z,17.40
2023-07-24T01:57:28.911Z,17.40
2023-07-24T01:59:59.063Z,17.30
2023-07-24T02:02:27.901Z,17.30
2023-07-24T02:04:57.238Z,17.30
2023-07-24T02:07:26.008Z,17.30
2023-07-24T02:09:55.034Z,17.20
2023-07-24T02:12:26.832Z,17.20
2023-07-24T02:14:56.471Z,17.20
2023-07-24T02:17:27.019Z,17.10
2023-07-24T02:19:55.902Z,17.10
2023-07-24T02:22:25.037Z,17.10
2023-07-24T02:24:53.910Z,17.10
2023-07-24T02:27:31.172Z,17.10
2023-07-24T02:30:04.237Z,17.20
2023-07-24T02:32:34.526Z,17.10
2023-07-24T02:35:03.442Z,17.20
2023-07-24T02:37:32.190Z,17.20
2023-07-24T02:40:01.019Z,17.20
2023-07-24T02:42:29.805Z,17.20
2023-07-24T02:44:58.439Z,17.20
2023-07-24T02:47:27.202Z,17.20
2023-07-24T02:49:57.264Z,17.30
2023-07-24T02:52:25.907Z,17.30
2023-07-24T02:54:55.297Z,17.30
2023-07-24T02:57:24.049Z,17.20
2023-07-24T03:00:02.814Z,17.30
2023-07-24T03:02:32.722Z,17.30
2023-07-24T03:05:02.828Z,17.30
2023-07-24T03:07:31.598Z,17.30
2023-07-24T03:10:00.746Z,17.30
2023-07-24T03:12:47.383Z,17.30
2023-07-24T03:15:16.089Z,17.40
2023-07-24T03:17:44.968Z,17.40
2023-07-24T03:20:20.159Z,17.40
2023-07-24T03:22:50.705Z,17.40
2023-07-24T03:25:19.567Z,17.40
2023-07-24T03:27:48.433Z,17.40
2023-07-24T03:30:17.368Z,17.40
2023-07-24T03:32:46.107Z,17.40
2023-07-24T03:35:16.271Z,17.40
2023-07-24T03:37:45.177Z,17.40
2023-07-24T03:40:14.973Z,17.40
2023-07-24T03:42:43.826Z,17.40
2023-07-24T03:45:12.679Z,17.40
2023-07-24T03:47:43.134Z,17.40
2023-07-24T03:50:12.226Z,17.30
2023-07-24T03:52:42.288Z,17.30
2023-07-24T03:55:11.784Z,17.40
2023-07-24T03:57:40.792Z,17.30
2023-07-24T04:00:10.803Z,17.30
2023-07-24T04:02:43.165Z,17.30
2023-07-24T04:05:13.210Z,17.30
2023-07-24T04:07:47.492Z,17.30
2023-07-24T04:10:16.370Z,17.30
2023-07-24T04:12:45.253Z,17.30
2023-07-24T04:15:14.194Z,17.20
2023-07-24T04:17:43.932Z,17.20
2023-07-24T04:20:13.227Z,17.20
2023-07-24T04:22:42.330Z,17.10
2023-07-24T04:25:12.864Z,17.20
2023-07-24T04:27:46.056Z,17.10
2023-07-24T04:30:14.842Z,17.10
2023-07-24T04:32:43.745Z,17.10
2023-07-24T04:35:12.564Z,17.10
2023-07-24T04:37:41.513Z,17.20
2023-07-24T04:40:12.922Z,17.10
2023-07-24T04:42:41.685Z,17.10
2023-07-24T04:45:11.518Z,17.10
2023-07-24T04:47:40.393Z,17.10
2023-07-24T04:50:09.765Z,17.00
2023-07-24T04:52:38.677Z,17.10
2023-07-24T04:55:08.646Z,17.00
2023-07-24T04:57:38.952Z,17.10
2023-07-24T05:00:09.172Z,17.10
2023-07-24T05:02:38.264Z,17.10
2023-07-24T05:05:08.230Z,17.10
2023-07-24T05:07:37.307Z,17.20
2023-07-24T05:10:07.613Z,17.20
2023-07-24T05:12:36.631Z,17.10
2023-07-24T05:15:10.907Z,17.20
2023-07-24T05:17:39.906Z,17.20
2023-07-24T05:20:10.292Z,17.20
2023-07-24T05:22:39.214Z,17.20
2023-07-24T05:25:08.758Z,17.20
2023-07-24T05:27:39.178Z,17.20
2023-07-24T05:30:12.342Z,17.30
2023-07-24T05:32:41.055Z,17.20
2023-07-24T05:35:10.493Z,17.20
2023-07-24T05:37:39.452Z,17.20
2023-07-24T05:40:09.517Z,17.30
2023-07-24T05:42:43.832Z,17.30
2023-07-24T05:45:16.999Z,17.40
2023-07-24T05:47:48.157Z,17.60
2023-07-24T05:50:18.781Z,17.60
2023-07-24T05:52:50.110Z,17.80
2023-07-24T05:55:19.045Z,17.90
2023-07-24T05:57:47.917Z,17.90
2023-07-24T06:00:19.133Z,17.90
2023-07-24T06:02:48.068Z,18.00
2023-07-24T06:05:17.083Z,18.00
2023-07-24T06:07:45.918Z,18.00
2023-07-24T06:10:18.056Z,18.00
2023-07-24T06:12:49.908Z,17.90
2023-07-24T06:15:24.989Z,17.90
2023-07-24T06:17:57.814Z,18.00
2023-07-24T06:20:28.502Z,18.00
2023-07-24T06:22:59.273Z,18.00
2023-07-24T06:25:28.243Z,18.00
2023-07-24T06:27:57.486Z,18.10
2023-07-24T06:30:28.105Z,18.20
2023-07-24T06:32:57.309Z,18.30
2023-07-24T06:35:29.292Z,18.50
2023-07-24T06:37:58.266Z,18.60
2023-07-24T06:40:27.433Z,18.60
2023-07-24T06:42:56.391Z,18.70
2023-07-24T06:45:25.303Z,18.60
2023-07-24T06:47:55.941Z,18.70
2023-07-24T06:50:25.135Z,18.80
2023-07-24T06:52:55.035Z,18.80
2023-07-24T06:55:24.023Z,18.90
2023-07-24T06:57:52.982Z,19.10
2023-07-24T07:00:21.978Z,19.20
2023-07-24T07:02:50.942Z,19.30
2023-07-24T07:05:21.164Z,19.40
2023-07-24T07:07:49.929Z,19.50
2023-07-24T07:10:19.028Z,19.60
2023-07-24T07:12:48.977Z,19.60
2023-07-24T07:15:17.920Z,19.50
2023-07-24T07:17:47.934Z,19.50
2023-07-24T07:20:16.988Z,19.40
2023-07-24T07:22:48.861Z,19.40
2023-07-24T07:25:17.894Z,19.40
2023-07-24T07:27:46.721Z,19.40
2023-07-24T07:30:15.714Z,19.40
2023-07-24T07:32:44.541Z,19.40
2023-07-24T07:35:16.320Z,19.40
2023-07-24T07:37:46.562Z,19.40
2023-07-24T07:40:15.396Z,19.40
2023-07-24T07:42:46.112Z,19.50
2023-07-24T07:45:15.071Z,19.40
2023-07-24T07:47:44.081Z,19.30
2023-07-24T07:50:12.989Z,19.20
2023-07-24T07:52:41.990Z,19.20
2023-07-24T07:55:12.461Z,19.10
2023-07-24T07:57:41.245Z,19.10
2023-07-24T08:00:10.896Z,19.10
2023-07-24T08:02:41.058Z,19.30
2023-07-24T08:05:18.138Z,19.40
2023-07-24T08:07:49.831Z,19.60
2023-07-24T08:10:21.471Z,19.60
2023-07-24T08:12:50.173Z,19.70
2023-07-24T08:15:19.269Z,19.90
2023-07-24T08:18:08.450Z,20.20
2023-07-24T08:20:38.901Z,20.30
2023-07-24T08:23:07.865Z,20.50
2023-07-24T08:25:38.312Z,20.60
2023-07-24T08:28:07.339Z,20.60
2023-07-24T08:30:37.125Z,20.60
2023-07-24T08:33:06.359Z,20.70
2023-07-24T08:35:35.184Z,20.80
2023-07-24T08:38:03.940Z,21.00
2023-07-24T08:40:32.679Z,21.20
2023-07-24T08:43:03.140Z,21.20
2023-07-24T08:45:32.933Z,21.00
2023-07-24T08:48:02.539Z,21.10
2023-07-24T08:50:32.581Z,21.10
2023-07-24T08:53:04.065Z,21.40
2023-07-24T08:55:33.339Z,21.50
2023-07-24T08:58:06.660Z,21.70
2023-07-24T09:00:35.501Z,21.60
2023-07-24T09:03:04.431Z,21.50
2023-07-24T09:05:33.306Z,21.60
2023-07-24T09:08:01.970Z,21.50
2023-07-24T09:10:32.206Z,21.70
2023-07-24T09:13:00.969Z,21.80
2023-07-24T09:15:31.164Z,21.80
2023-07-24T09:18:00.124Z,21.60
2023-07-24T09:20:39.624Z,21.50
2023-07-24T09:25:41.608Z,21.60
2023-07-24T09:28:14.149Z,21.60
2023-07-24T09:30:53.696Z,21.70
2023-07-24T09:33:22.743Z,21.70
2023-07-24T09:36:02.575Z,22.00
2023-07-24T09:38:31.340Z,22.10
2023-07-24T09:41:00.181Z,22.10
2023-07-24T09:43:40.004Z,22.10
2023-07-24T09:46:12.089Z,22.30
2023-07-24T09:48:43.894Z,22.50
2023-07-24T09:51:33.242Z,22.40
2023-07-24T09:54:09.462Z,22.40
2023-07-24T09:56:50.546Z,22.40
2023-07-24T09:59:24.535Z,22.20
2023-07-24T10:01:55.889Z,22.30
2023-07-24T10:04:26.566Z,22.50
2023-07-24T10:06:56.136Z,22.60
2023-07-24T10:09:30.559Z,22.90
2023-07-24T10:12:00.334Z,22.80
2023-07-24T10:14:30.280Z,22.50
2023-07-24T10:17:00.638Z,22.40
2023-07-24T10:19:39.434Z,22.20
2023-07-24T10:22:08.749Z,22.10
2023-07-24T10:24:42.251Z,21.80
2023-07-24T10:27:12.159Z,21.90
2023-07-24T10:29:41.328Z,21.80
2023-07-24T10:32:23.988Z,21.70
2023-07-24T10:35:00.674Z,21.60
2023-07-24T10:37:37.465Z,21.70
2023-07-24T10:40:07.820Z,22.00
2023-07-24T10:42:37.234Z,22.30
2023-07-24T10:45:19.938Z,22.20
2023-07-24T10:47:55.102Z,22.30
2023-07-24T10:50:24.145Z,22.40
2023-07-24T10:52:53.005Z,22.50
2023-07-24T10:55:24.095Z,22.60
2023-07-24T10:57:59.212Z,22.70
2023-07-24T11:00:32.637Z,22.60
2023-07-24T11:03:09.874Z,22.40
2023-07-24T11:44:12.497Z,22.50
2023-07-24T11:46:48.219Z,22.60
2023-07-24T11:49:17.274Z,22.40
2023-07-24T11:51:45.990Z,22.40
2023-07-24T11:54:17.242Z,22.60
2023-07-24T11:56:45.978Z,22.90
2023-07-24T11:59:18.225Z,23.10
2023-07-24T12:01:49.060Z,23.00
2023-07-24T12:04:18.548Z,22.80
2023-07-24T12:06:47.479Z,22.70
2023-07-24T12:09:18.468Z,22.90
2023-07-24T12:11:47.691Z,23.00
2023-07-24T12:14:19.764Z,23.00
2023-07-24T12:16:53.008Z,22.90
2023-07-24T12:19:22.502Z,22.90
2023-07-24T12:21:51.447Z,23.00
2023-07-24T12:24:20.373Z,23.10
2023-07-24T12:26:49.544Z,23.70
2023-07-24T12:29:20.168Z,24.00
2023-07-24T12:31:49.308Z,24.20
2023-07-24T12:34:18.351Z,24.00
2023-07-24T12:36:49.014Z,23.70
2023-07-24T12:39:18.359Z,23.70
2023-07-24T12:41:47.442Z,23.80
2023-07-24T12:44:16.867Z,24.00
2023-07-24T12:46:48.774Z,24.00
2023-07-24T12:49:19.974Z,23.80
2023-07-24T12:51:52.180Z,23.70
2023-07-24T12:54:46.391Z,24.00
2023-07-24T12:57:14.646Z,24.20
2023-07-24T12:59:43.672Z,24.00
2023-07-24T13:02:14.077Z,23.80
2023-07-24T13:04:43.187Z,23.80
2023-07-24T13:07:15.058Z,23.60
2023-07-24T13:10:07.717Z,23.50
2023-07-24T13:12:36.738Z,23.60
2023-07-24T13:15:06.878Z,23.70
2023-07-24T13:17:40.187Z,24.20
2023-07-24T13:20:10.545Z,24.40
2023-07-24T13:22:39.246Z,24.80
2023-07-24T13:25:09.306Z,24.50
2023-07-24T13:27:38.514Z,24.10
2023-07-24T13:30:08.208Z,24.20
2023-07-24T13:32:38.591Z,24.50
2023-07-24T13:35:08.270Z,24.40
2023-07-24T13:37:39.415Z,24.20
2023-07-24T13:40:09.706Z,24.20
2023-07-24T13:42:38.601Z,24.40
2023-07-24T13:45:08.447Z,24.70
2023-07-24T13:47:38.655Z,24.70
2023-07-24T13:50:11.312Z,25.00
2023-07-24T13:52:40.105Z,25.40
2023-07-24T13:55:10.076Z,25.20
2023-07-24T13:57:39.255Z,24.70
2023-07-24T14:00:09.058Z,23.90
2023-07-24T14:02:42.105Z,23.30
2023-07-24T14:05:11.506Z,22.40
2023-07-24T14:07:40.366Z,21.40
2023-07-24T14:10:10.366Z,20.60
2023-07-24T14:12:39.361Z,20.00
2023-07-24T14:15:09.310Z,19.50
2023-07-24T14:17:39.568Z,18.90
2023-07-24T14:20:09.877Z,18.70
2023-07-24T14:22:38.817Z,18.70
2023-07-24T14:25:08.125Z,18.50
2023-07-24T14:27:36.991Z,18.40
2023-07-24T14:30:07.176Z,18.40
2023-07-24T14:32:35.947Z,18.60
2023-07-24T14:35:06.947Z,18.70
2023-07-24T14:37:42.510Z,18.90
2023-07-24T14:40:16.485Z,19.20
2023-07-24T14:42:49.806Z,19.60
2023-07-24T14:45:19.646Z,20.00
2023-07-24T14:47:50.849Z,20.60
2023-07-24T14:50:21.030Z,21.10
2023-07-24T14:52:49.861Z,21.30
2023-07-24T14:55:24.015Z,21.10
2023-07-24T14:57:52.893Z,21.00
2023-07-24T15:00:23.116Z,20.80
2023-07-24T15:02:51.943Z,20.70
2023-07-24T15:05:22.842Z,20.50
2023-07-24T15:07:54.406Z,20.20
2023-07-24T15:10:23.454Z,20.10
2023-07-24T15:12:52.650Z,19.80
2023-07-24T15:15:23.912Z,19.80
2023-07-24T15:17:57.387Z,19.70
2023-07-24T15:20:27.823Z,19.50
2023-07-24T15:22:59.235Z,19.40
2023-07-24T15:25:28.049Z,18.90
2023-07-24T15:27:56.862Z,18.70
2023-07-24T15:30:25.866Z,18.70
2023-07-24T15:32:54.712Z,18.80
2023-07-24T15:35:23.944Z,18.70
2023-07-24T15:37:57.328Z,18.70
2023-07-24T15:40:26.296Z,18.70
2023-07-24T15:42:55.534Z,18.70
2023-07-24T15:45:24.544Z,18.60
2023-07-24T15:47:56.162Z,18.70
2023-07-24T15:50:27.011Z,19.00
2023-07-24T15:52:59.959Z,19.60
2023-07-24T15:55:28.904Z,19.90
2023-07-24T15:58:01.216Z,19.80
2023-07-24T16:00:33.866Z,20.00
2023-07-24T16:03:03.109Z,20.10
2023-07-24T16:05:31.954Z,20.20
2023-07-24T16:08:02.596Z,20.40
2023-07-24T16:10:31.601Z,20.30
2023-07-24T16:13:11.126Z,20.30
2023-07-24T16:18:14.385Z,20.90
2023-07-24T16:20:55.646Z,20.70
2023-07-24T16:23:27.156Z,20.70
2023-07-24T16:26:03.135Z,20.50
2023-07-24T16:28:34.568Z,20.60
2023-07-24T16:31:18.512Z,20.70
2023-07-24T16:33:51.833Z,20.90
2023-07-24T16:36:23.901Z,20.80
2023-07-24T16:38:57.155Z,20.30
2023-07-24T16:41:27.484Z,19.80
2023-07-24T16:44:01.471Z,19.60
2023-07-24T16:46:31.062Z,19.30
2023-07-24T16:48:59.779Z,19.80
2023-07-24T16:51:28.763Z,19.60
2023-07-24T16:53:58.940Z,19.10
2023-07-24T16:56:27.741Z,18.80
2023-07-24T16:58:56.353Z,18.70
2023-07-24T17:01:25.619Z,18.60
2023-07-24T17:03:56.690Z,18.50
2023-07-24T17:06:27.344Z,18.60
2023-07-24T17:08:56.056Z,18.60
2023-07-24T17:11:26.163Z,18.60
2023-07-24T17:13:55.128Z,18.50
2023-07-24T17:16:25.054Z,18.20
2023-07-24T17:18:57.362Z,18.00
2023-07-24T17:21:26.205Z,17.90
2023-07-24T17:23:57.893Z,17.80
2023-07-24T17:26:32.219Z,17.80
2023-07-24T17:29:03.258Z,17.80
2023-07-24T17:31:33.761Z,17.60
2023-07-24T17:34:03.580Z,17.50
2023-07-24T17:36:32.380Z,17.50
2023-07-24T17:39:02.167Z,17.50
2023-07-24T17:41:34.923Z,17.50
2023-07-24T17:44:03.699Z,17.50
2023-07-24T17:46:32.707Z,17.40
2023-07-24T17:49:01.454Z,17.30
2023-07-24T17:51:31.295Z,17.30
2023-07-24T17:54:00.692Z,17.20
2023-07-24T17:56:29.611Z,17.20
2023-07-24T17:58:59.944Z,17.30
2023-07-24T18:01:28.894Z,17.40
2023-07-24T18:03:58.103Z,17.50
2023-07-24T18:06:29.354Z,17.50
2023-07-24T18:09:02.527Z,17.50
2023-07-24T18:11:31.543Z,17.50
2023-07-24T18:14:02.015Z,17.50
2023-07-24T18:16:30.991Z,17.60
2023-07-24T18:18:59.798Z,17.60
2023-07-24T18:21:28.995Z,17.60
2023-07-24T18:23:58.105Z,17.50
2023-07-24T18:26:29.236Z,17.40
2023-07-24T18:28:59.915Z,17.40
2023-07-24T18:31:35.959Z,17.30
2023-07-24T18:34:04.865Z,17.20
2023-07-24T18:36:33.702Z,17.10
2023-07-24T18:39:02.373Z,17.10
2023-07-24T18:41:31.440Z,17.00
2023-07-24T18:44:03.712Z,16.90
2023-07-24T18:46:33.944Z,16.90
2023-07-24T18:49:03.064Z,16.80
2023-07-24T18:51:32.164Z,16.90
2023-07-24T18:54:01.215Z,16.90
2023-07-24T18:56:30.159Z,16.80
2023-07-24T18:58:59.616Z,16.60
2023-07-24T19:01:28.735Z,16.50
2023-07-24T19:03:59.097Z,16.40
2023-07-24T19:06:32.065Z,16.40
2023-07-24T19:09:01.182Z,16.30
2023-07-24T19:11:30.486Z,16.10
2023-07-24T19:16:43.360Z,16.10
2023-07-24T19:19:13.487Z,16.00
2023-07-24T19:21:42.311Z,15.90
2023-07-24T19:24:11.238Z,15.90
2023-07-24T19:26:44.585Z,15.90
2023-07-24T19:29:13.905Z,15.90
2023-07-24T19:31:42.885Z,15.90
2023-07-24T19:34:13.119Z,16.00
2023-07-24T19:36:41.946Z,15.90
2023-07-24T19:39:10.817Z,15.90
2023-07-24T19:41:39.602Z,15.80
2023-07-24T19:44:08.484Z,15.80
2023-07-24T19:46:43.498Z,15.80
2023-07-24T19:49:13.533Z,15.90
2023-07-24T19:51:42.314Z,15.80
2023-07-24T19:54:11.182Z,15.80
2023-07-24T19:56:39.969Z,15.70
2023-07-24T19:59:08.830Z,15.70
2023-07-24T20:01:37.761Z,15.70
2023-07-24T20:04:07.075Z,15.70
2023-07-24T20:06:37.234Z,15.70
2023-07-24T20:09:08.486Z,15.80
2023-07-24T20:11:37.513Z,15.80
2023-07-24T20:14:06.350Z,15.80
2023-07-24T20:16:35.187Z,15.80
2023-07-24T20:19:04.048Z,15.80
2023-07-24T20:21:33.236Z,15.80
2023-07-24T20:24:11.736Z,15.80
2023-07-24T20:26:43.417Z,15.80
2023-07-24T20:29:12.695Z,15.70
2023-07-24T20:31:41.645Z,15.70
2023-07-24T20:34:10.458Z,15.70
2023-07-24T20:36:41.220Z,15.80
2023-07-24T20:39:18.411Z,15.80
2023-07-24T20:41:47.584Z,15.80
2023-07-24T20:44:16.360Z,15.80
2023-07-24T20:46:45.281Z,15.80
2023-07-24T20:49:14.108Z,15.80
2023-07-24T20:51:43.183Z,15.70
2023-07-24T20:54:13.456Z,15.60
2023-07-24T20:56:42.170Z,15.60
2023-07-24T20:59:10.891Z,15.50
2023-07-24T21:01:41.474Z,15.50
2023-07-24T21:04:10.311Z,15.50
2023-07-24T21:06:39.141Z,15.60
2023-07-24T21:09:07.871Z,15.70
2023-07-24T21:11:38.034Z,15.60
2023-07-24T21:14:06.777Z,15.50
2023-07-24T21:16:35.856Z,15.40
2023-07-24T21:19:07.301Z,15.40
2023-07-24T21:21:39.022Z,15.40
2023-07-24T21:24:08.093Z,15.30
2023-07-24T21:26:41.599Z,15.20
2023-07-24T21:29:18.962Z,15.10
2023-07-24T21:31:47.702Z,15.10
2023-07-24T21:34:16.506Z,14.90
2023-07-24T21:36:45.413Z,14.90
2023-07-24T21:39:14.120Z,14.80
2023-07-24T21:41:44.555Z,14.70
2023-07-24T21:44:15.450Z,14.60
2023-07-24T21:46:44.319Z,14.60
2023-07-24T21:49:13.154Z,14.50
2023-07-24T21:51:47.608Z,14.50
2023-07-24T21:54:16.269Z,14.40
2023-07-24T21:56:46.333Z,14.30
2023-07-24T21:59:15.622Z,14.30
2023-07-24T22:01:44.407Z,14.20
2023-07-24T22:04:13.185Z,14.20
2023-07-24T22:06:41.911Z,14.10
2023-07-24T22:09:10.681Z,14.20
2023-07-24T22:11:39.444Z,14.10
2023-07-24T22:14:09.646Z,14.10
2023-07-24T22:16:38.480Z,14.00
2023-07-24T22:19:10.276Z,14.00
2023-07-24T22:21:39.195Z,13.90
2023-07-24T22:24:07.909Z,13.90
2023-07-24T22:26:36.539Z,13.90
2023-07-24T22:29:05.300Z,13.80
2023-07-24T22:31:35.412Z,13.70
2023-07-24T22:34:04.060Z,13.70
2023-07-24T22:36:32.757Z,13.60
2023-07-24T22:39:05.949Z,13.60
2023-07-24T22:41:34.773Z,13.60
2023-07-24T22:44:03.590Z,13.60
2023-07-24T22:46:32.644Z,13.50
2023-07-24T22:49:03.010Z,13.50
2023-07-24T22:51:33.753Z,13.50
2023-07-24T22:54:03.568Z,13.40
2023-07-24T22:56:32.268Z,13.40
2023-07-24T22:59:20.822Z,13.40
2023-07-24T23:01:50.261Z,13.30
2023-07-24T23:04:22.745Z,13.30
2023-07-24T23:06:52.073Z,13.30
2023-07-24T23:09:20.877Z,13.30
2023-07-24T23:11:49.651Z,13.30
2023-07-24T23:14:18.422Z,13.30
2023-07-24T23:16:47.230Z,13.20
2023-07-24T23:19:16.150Z,13.20
2023-07-24T23:21:46.242Z,13.20
2023-07-24T23:24:14.936Z,13.10
2023-07-24T23:26:43.738Z,13.10
2023-07-24T23:29:12.548Z,13.00
2023-07-24T23:31:41.536Z,13.00
2023-07-24T23:34:10.210Z,13.00
2023-07-24T23:36:38.903Z,12.90
2023-07-24T23:39:09.137Z,12.90
2023-07-24T23:41:38.226Z,12.90
2023-07-24T23:44:06.961Z,12.80
2023-07-24T23:46:35.670Z,12.80
2023-07-24T23:49:04.497Z,12.80
2023-07-24T23:51:33.427Z,12.80
2023-07-24T23:54:02.344Z,12.70
2023-07-24T23:56:32.475Z,12.60
2023-07-24T23:59:02.224Z,12.60
